sensor_id;sensor_type;location;lat;lon;timestamp;P1;durP1;ratioP1;P2;durP2;ratioP2
3767;SDS011;1899;49.966;7.106;2023-09-12T00:01:50;9.50;;;8.60;;
3767;SDS011;1899;49.966;7.106;2023-09-12T00:04:15;12.43;;;8.50;;
3767;SDS011;1899;49.966;7.106;2023-09-12T00:06:41;10.10;;;8.70;;
3767;SDS011;1899;49.966;7.106;2023-09-12T00:09:07;14.33;;;8.70;;
3767;SDS011;1899;49.966;7.106;2023-09-12T00:11:33;11.43;;;9.23;;
3767;SDS011;1899;49.966;7.106;2023-09-12T00:13:58;11.37;;;8.43;;
3767;SDS011;1899;49.966;7.106;2023-09-12T00:16:26;11.43;;;7.90;;
3767;SDS011;1899;49.966;7.106;2023-09-12T00:18:51;11.93;;;8.47;;
3767;SDS011;1899;49.966;7.106;2023-09-12T00:21:17;12.50;;;8.80;;
3767;SDS011;1899;49.966;7.106;2023-09-12T00:23:42;11.13;;;9.00;;
3767;SDS011;1899;49.966;7.106;2023-09-12T00:26:07;13.20;;;8.20;;
3767;SDS011;1899;49.966;7.106;2023-09-12T00:28:32;8.77;;;7.93;;
3767;SDS011;1899;49.966;7.106;2023-09-12T00:30:59;9.43;;;8.53;;
3767;SDS011;1899;49.966;7.106;2023-09-12T00:33:24;11.23;;;9.20;;
3767;SDS011;1899;49.966;7.106;2023-09-12T00:35:49;9.33;;;8.50;;
3767;SDS011;1899;49.966;7.106;2023-09-12T00:38:15;14.53;;;8.50;;
3767;SDS011;1899;49.966;7.106;2023-09-12T00:40:40;10.47;;;9.10;;
3767;SDS011;1899;49.966;7.106;2023-09-12T00:43:05;11.33;;;8.70;;
3767;SDS011;1899;49.966;7.106;2023-09-12T00:45:30;9.47;;;8.07;;
3767;SDS011;1899;49.966;7.106;2023-09-12T00:47:57;9.30;;;7.80;;
3767;SDS011;1899;49.966;7.106;2023-09-12T00:50:23;8.77;;;7.60;;
3767;SDS011;1899;49.966;7.106;2023-09-12T00:52:49;16.80;;;9.30;;
3767;SDS011;1899;49.966;7.106;2023-09-12T00:55:14;21.10;;;9.40;;
3767;SDS011;1899;49.966;7.106;2023-09-12T00:57:40;11.77;;;8.43;;
3767;SDS011;1899;49.966;7.106;2023-09-12T01:00:06;10.20;;;9.20;;
3767;SDS011;1899;49.966;7.106;2023-09-12T01:02:36;10.23;;;8.87;;
3767;SDS011;1899;49.966;7.106;2023-09-12T01:05:03;10.07;;;9.00;;
3767;SDS011;1899;49.966;7.106;2023-09-12T01:07:29;9.40;;;8.50;;
3767;SDS011;1899;49.966;7.106;2023-09-12T01:09:55;9.97;;;8.17;;
3767;SDS011;1899;49.966;7.106;2023-09-12T01:12:20;10.13;;;9.00;;
3767;SDS011;1899;49.966;7.106;2023-09-12T01:14:45;14.00;;;8.93;;
3767;SDS011;1899;49.966;7.106;2023-09-12T01:17:10;9.87;;;8.80;;
3767;SDS011;1899;49.966;7.106;2023-09-12T01:19:36;12.73;;;8.40;;
3767;SDS011;1899;49.966;7.106;2023-09-12T01:25:07;10.77;;;8.77;;
3767;SDS011;1899;49.966;7.106;2023-09-12T01:27:46;11.10;;;8.70;;
3767;SDS011;1899;49.966;7.106;2023-09-12T01:30:11;13.17;;;9.30;;
3767;SDS011;1899;49.966;7.106;2023-09-12T01:32:37;9.03;;;8.13;;
3767;SDS011;1899;49.966;7.106;2023-09-12T01:35:04;10.97;;;9.00;;
3767;SDS011;1899;49.966;7.106;2023-09-12T01:37:32;12.03;;;9.60;;
3767;SDS011;1899;49.966;7.106;2023-09-12T01:39:57;10.27;;;9.10;;
3767;SDS011;1899;49.966;7.106;2023-09-12T01:42:23;13.07;;;9.33;;
3767;SDS011;1899;49.966;7.106;2023-09-12T01:44:50;10.50;;;9.23;;
3767;SDS011;1899;49.966;7.106;2023-09-12T01:47:16;10.87;;;7.93;;
3767;SDS011;1899;49.966;7.106;2023-09-12T01:49:44;10.10;;;8.70;;
3767;SDS011;1899;49.966;7.106;2023-09-12T01:52:10;9.40;;;8.60;;
3767;SDS011;1899;49.966;7.106;2023-09-12T01:54:36;15.70;;;9.50;;
3767;SDS011;1899;49.966;7.106;2023-09-12T01:57:02;10.13;;;9.13;;
3767;SDS011;1899;49.966;7.106;2023-09-12T01:59:30;11.30;;;10.20;;
3767;SDS011;1899;49.966;7.106;2023-09-12T02:01:56;9.53;;;8.57;;
3767;SDS011;1899;49.966;7.106;2023-09-12T02:04:21;10.40;;;9.03;;
3767;SDS011;1899;49.966;7.106;2023-09-12T02:06:46;10.23;;;9.23;;
3767;SDS011;1899;49.966;7.106;2023-09-12T02:09:12;9.77;;;8.77;;
3767;SDS011;1899;49.966;7.106;2023-09-12T02:11:37;9.70;;;8.70;;
3767;SDS011;1899;49.966;7.106;2023-09-12T02:14:02;11.10;;;9.37;;
3767;SDS011;1899;49.966;7.106;2023-09-12T02:16:28;10.70;;;9.70;;
3767;SDS011;1899;49.966;7.106;2023-09-12T02:18:54;12.30;;;8.90;;
3767;SDS011;1899;49.966;7.106;2023-09-12T02:21:19;9.27;;;8.37;;
3767;SDS011;1899;49.966;7.106;2023-09-12T02:23:44;10.83;;;9.80;;
3767;SDS011;1899;49.966;7.106;2023-09-12T02:26:10;14.83;;;9.57;;
3767;SDS011;1899;49.966;7.106;2023-09-12T02:28:35;11.50;;;8.67;;
3767;SDS011;1899;49.966;7.106;2023-09-12T02:31:00;11.90;;;9.87;;
3767;SDS011;1899;49.966;7.106;2023-09-12T02:33:25;14.37;;;10.57;;
3767;SDS011;1899;49.966;7.106;2023-09-12T02:35:51;9.57;;;8.57;;
3767;SDS011;1899;49.966;7.106;2023-09-12T02:38:17;12.30;;;9.13;;
3767;SDS011;1899;49.966;7.106;2023-09-12T02:40:43;12.10;;;10.23;;
3767;SDS011;1899;49.966;7.106;2023-09-12T02:43:08;11.23;;;9.27;;
3767;SDS011;1899;49.966;7.106;2023-09-12T02:45:33;13.67;;;10.77;;
3767;SDS011;1899;49.966;7.106;2023-09-12T02:47:58;19.30;;;10.00;;
3767;SDS011;1899;49.966;7.106;2023-09-12T02:50:24;11.33;;;10.13;;
3767;SDS011;1899;49.966;7.106;2023-09-12T02:52:49;11.20;;;8.90;;
3767;SDS011;1899;49.966;7.106;2023-09-12T02:55:14;12.13;;;10.07;;
3767;SDS011;1899;49.966;7.106;2023-09-12T02:57:39;12.10;;;8.77;;
3767;SDS011;1899;49.966;7.106;2023-09-12T03:00:05;11.77;;;9.50;;
3767;SDS011;1899;49.966;7.106;2023-09-12T03:02:33;10.63;;;9.50;;
3767;SDS011;1899;49.966;7.106;2023-09-12T03:04:58;11.40;;;9.33;;
3767;SDS011;1899;49.966;7.106;2023-09-12T03:07:24;11.50;;;9.00;;
3767;SDS011;1899;49.966;7.106;2023-09-12T03:09:49;10.60;;;9.20;;
3767;SDS011;1899;49.966;7.106;2023-09-12T03:12:14;18.33;;;9.80;;
3767;SDS011;1899;49.966;7.106;2023-09-12T03:14:40;10.33;;;9.37;;
3767;SDS011;1899;49.966;7.106;2023-09-12T03:17:05;13.40;;;11.17;;
3767;SDS011;1899;49.966;7.106;2023-09-12T03:19:30;12.30;;;9.23;;
3767;SDS011;1899;49.966;7.106;2023-09-12T03:21:56;10.57;;;9.43;;
3767;SDS011;1899;49.966;7.106;2023-09-12T03:24:21;10.93;;;9.83;;
3767;SDS011;1899;49.966;7.106;2023-09-12T03:26:49;12.67;;;10.43;;
3767;SDS011;1899;49.966;7.106;2023-09-12T03:29:15;16.70;;;10.70;;
3767;SDS011;1899;49.966;7.106;2023-09-12T03:31:40;22.53;;;12.37;;
3767;SDS011;1899;49.966;7.106;2023-09-12T03:34:05;26.73;;;12.97;;
3767;SDS011;1899;49.966;7.106;2023-09-12T03:36:30;18.80;;;11.50;;
3767;SDS011;1899;49.966;7.106;2023-09-12T03:38:56;14.33;;;11.10;;
3767;SDS011;1899;49.966;7.106;2023-09-12T03:41:21;22.73;;;12.70;;
3767;SDS011;1899;49.966;7.106;2023-09-12T03:43:52;27.70;;;13.77;;
3767;SDS011;1899;49.966;7.106;2023-09-12T03:46:17;20.23;;;12.77;;
3767;SDS011;1899;49.966;7.106;2023-09-12T03:48:43;14.10;;;12.20;;
3767;SDS011;1899;49.966;7.106;2023-09-12T03:51:08;14.63;;;10.30;;
3767;SDS011;1899;49.966;7.106;2023-09-12T03:53:33;16.90;;;10.73;;
3767;SDS011;1899;49.966;7.106;2023-09-12T03:55:58;13.07;;;10.40;;
3767;SDS011;1899;49.966;7.106;2023-09-12T03:58:24;13.63;;;9.90;;
3767;SDS011;1899;49.966;7.106;2023-09-12T04:00:50;11.60;;;9.40;;
3767;SDS011;1899;49.966;7.106;2023-09-12T04:03:15;12.17;;;9.73;;
3767;SDS011;1899;49.966;7.106;2023-09-12T04:05:41;10.53;;;9.53;;
3767;SDS011;1899;49.966;7.106;2023-09-12T04:08:06;12.03;;;9.17;;
3767;SDS011;1899;49.966;7.106;2023-09-12T04:10:31;10.10;;;9.20;;
3767;SDS011;1899;49.966;7.106;2023-09-12T04:12:57;12.50;;;9.90;;
3767;SDS011;1899;49.966;7.106;2023-09-12T04:15:22;13.57;;;10.70;;
3767;SDS011;1899;49.966;7.106;2023-09-12T04:17:48;12.33;;;10.60;;
3767;SDS011;1899;49.966;7.106;2023-09-12T04:20:13;12.90;;;10.70;;
3767;SDS011;1899;49.966;7.106;2023-09-12T04:22:39;18.00;;;11.27;;
3767;SDS011;1899;49.966;7.106;2023-09-12T04:25:04;12.30;;;10.80;;
3767;SDS011;1899;49.966;7.106;2023-09-12T04:27:29;12.97;;;9.93;;
3767;SDS011;1899;49.966;7.106;2023-09-12T04:29:55;12.00;;;9.87;;
3767;SDS011;1899;49.966;7.106;2023-09-12T04:32:20;15.00;;;10.50;;
3767;SDS011;1899;49.966;7.106;2023-09-12T04:34:48;12.13;;;10.33;;
3767;SDS011;1899;49.966;7.106;2023-09-12T04:37:13;11.93;;;9.33;;
3767;SDS011;1899;49.966;7.106;2023-09-12T04:39:39;18.40;;;11.00;;
3767;SDS011;1899;49.966;7.106;2023-09-12T04:42:04;14.37;;;10.10;;
3767;SDS011;1899;49.966;7.106;2023-09-12T04:44:34;11.93;;;9.80;;
3767;SDS011;1899;49.966;7.106;2023-09-12T04:46:59;12.77;;;10.00;;
3767;SDS011;1899;49.966;7.106;2023-09-12T04:49:24;14.50;;;9.90;;
3767;SDS011;1899;49.966;7.106;2023-09-12T04:51:49;15.03;;;10.10;;
3767;SDS011;1899;49.966;7.106;2023-09-12T04:54:15;11.13;;;9.73;;
3767;SDS011;1899;49.966;7.106;2023-09-12T04:56:40;14.23;;;9.60;;
3767;SDS011;1899;49.966;7.106;2023-09-12T04:59:05;12.13;;;9.47;;
3767;SDS011;1899;49.966;7.106;2023-09-12T05:01:32;12.70;;;10.17;;
3767;SDS011;1899;49.966;7.106;2023-09-12T05:03:57;10.13;;;9.13;;
3767;SDS011;1899;49.966;7.106;2023-09-12T05:06:22;15.53;;;11.20;;
3767;SDS011;1899;49.966;7.106;2023-09-12T05:08:47;22.83;;;11.40;;
3767;SDS011;1899;49.966;7.106;2023-09-12T05:11:12;11.57;;;9.80;;
3767;SDS011;1899;49.966;7.106;2023-09-12T05:13:38;14.60;;;10.43;;
3767;SDS011;1899;49.966;7.106;2023-09-12T05:16:03;13.43;;;11.40;;
3767;SDS011;1899;49.966;7.106;2023-09-12T05:18:28;12.77;;;11.17;;
3767;SDS011;1899;49.966;7.106;2023-09-12T05:20:53;13.60;;;10.77;;
3767;SDS011;1899;49.966;7.106;2023-09-12T05:23:19;13.40;;;10.53;;
3767;SDS011;1899;49.966;7.106;2023-09-12T05:25:44;14.80;;;11.27;;
3767;SDS011;1899;49.966;7.106;2023-09-12T05:28:09;13.60;;;9.53;;
3767;SDS011;1899;49.966;7.106;2023-09-12T05:30:35;11.77;;;10.23;;
3767;SDS011;1899;49.966;7.106;2023-09-12T05:33:01;12.03;;;10.83;;
3767;SDS011;1899;49.966;7.106;2023-09-12T05:35:26;14.80;;;10.80;;
3767;SDS011;1899;49.966;7.106;2023-09-12T05:37:52;14.13;;;10.13;;
3767;SDS011;1899;49.966;7.106;2023-09-12T05:40:17;12.17;;;10.23;;
3767;SDS011;1899;49.966;7.106;2023-09-12T05:42:43;12.93;;;10.73;;
3767;SDS011;1899;49.966;7.106;2023-09-12T05:45:08;14.47;;;11.80;;
3767;SDS011;1899;49.966;7.106;2023-09-12T05:47:33;11.70;;;9.80;;
3767;SDS011;1899;49.966;7.106;2023-09-12T05:49:59;11.63;;;10.40;;
3767;SDS011;1899;49.966;7.106;2023-09-12T05:52:25;13.10;;;11.80;;
3767;SDS011;1899;49.966;7.106;2023-09-12T05:54:51;11.47;;;10.30;;
3767;SDS011;1899;49.966;7.106;2023-09-12T05:57:16;12.13;;;10.30;;
3767;SDS011;1899;49.966;7.106;2023-09-12T05:59:41;11.77;;;10.67;;
3767;SDS011;1899;49.966;7.106;2023-09-12T06:02:07;13.27;;;10.43;;
3767;SDS011;1899;49.966;7.106;2023-09-12T06:04:34;11.93;;;10.60;;
3767;SDS011;1899;49.966;7.106;2023-09-12T06:07:00;12.83;;;10.83;;
3767;SDS011;1899;49.966;7.106;2023-09-12T06:09:26;12.40;;;10.90;;
3767;SDS011;1899;49.966;7.106;2023-09-12T06:11:51;12.77;;;9.90;;
3767;SDS011;1899;49.966;7.106;2023-09-12T06:14:16;11.43;;;10.33;;
3767;SDS011;1899;49.966;7.106;2023-09-12T06:16:41;12.93;;;10.80;;
3767;SDS011;1899;49.966;7.106;2023-09-12T06:19:07;16.93;;;11.87;;
3767;SDS011;1899;49.966;7.106;2023-09-12T06:21:32;12.93;;;11.63;;
3767;SDS011;1899;49.966;7.106;2023-09-12T06:24:10;15.77;;;11.93;;
3767;SDS011;1899;49.966;7.106;2023-09-12T06:26:36;13.57;;;9.80;;
3767;SDS011;1899;49.966;7.106;2023-09-12T06:29:02;12.00;;;10.80;;
3767;SDS011;1899;49.966;7.106;2023-09-12T06:31:27;11.20;;;10.20;;
3767;SDS011;1899;49.966;7.106;2023-09-12T06:33:53;11.30;;;10.20;;
3767;SDS011;1899;49.966;7.106;2023-09-12T06:36:18;14.47;;;10.40;;
3767;SDS011;1899;49.966;7.106;2023-09-12T06:38:43;14.53;;;10.60;;
3767;SDS011;1899;49.966;7.106;2023-09-12T06:41:08;16.77;;;12.00;;
3767;SDS011;1899;49.966;7.106;2023-09-12T06:43:33;13.30;;;11.10;;
3767;SDS011;1899;49.966;7.106;2023-09-12T06:45:59;16.77;;;12.53;;
3767;SDS011;1899;49.966;7.106;2023-09-12T06:48:24;14.57;;;10.57;;
3767;SDS011;1899;49.966;7.106;2023-09-12T06:50:49;11.60;;;10.03;;
3767;SDS011;1899;49.966;7.106;2023-09-12T06:53:15;15.23;;;12.93;;
3767;SDS011;1899;49.966;7.106;2023-09-12T06:55:40;12.40;;;11.10;;
3767;SDS011;1899;49.966;7.106;2023-09-12T06:58:05;11.97;;;10.43;;
3767;SDS011;1899;49.966;7.106;2023-09-12T07:00:31;15.27;;;11.40;;
3767;SDS011;1899;49.966;7.106;2023-09-12T07:02:56;12.97;;;10.93;;
3767;SDS011;1899;49.966;7.106;2023-09-12T07:05:21;13.87;;;10.77;;
3767;SDS011;1899;49.966;7.106;2023-09-12T07:07:47;13.07;;;11.77;;
3767;SDS011;1899;49.966;7.106;2023-09-12T07:10:12;13.70;;;11.67;;
3767;SDS011;1899;49.966;7.106;2023-09-12T07:12:37;14.63;;;11.37;;
3767;SDS011;1899;49.966;7.106;2023-09-12T07:15:02;15.50;;;11.80;;
3767;SDS011;1899;49.966;7.106;2023-09-12T07:17:28;13.97;;;10.57;;
3767;SDS011;1899;49.966;7.106;2023-09-12T07:19:53;16.20;;;10.90;;
3767;SDS011;1899;49.966;7.106;2023-09-12T07:22:18;13.60;;;11.37;;
3767;SDS011;1899;49.966;7.106;2023-09-12T07:24:44;14.07;;;10.93;;
3767;SDS011;1899;49.966;7.106;2023-09-12T07:27:09;13.43;;;10.97;;
3767;SDS011;1899;49.966;7.106;2023-09-12T07:29:34;15.07;;;12.63;;
3767;SDS011;1899;49.966;7.106;2023-09-12T07:31:59;15.53;;;13.50;;
3767;SDS011;1899;49.966;7.106;2023-09-12T07:34:25;14.07;;;11.80;;
3767;SDS011;1899;49.966;7.106;2023-09-12T07:36:50;13.60;;;12.20;;
3767;SDS011;1899;49.966;7.106;2023-09-12T07:39:19;12.70;;;11.40;;
3767;SDS011;1899;49.966;7.106;2023-09-12T07:41:44;16.17;;;11.40;;
3767;SDS011;1899;49.966;7.106;2023-09-12T07:44:09;12.30;;;10.97;;
3767;SDS011;1899;49.966;7.106;2023-09-12T07:46:40;12.77;;;10.50;;
3767;SDS011;1899;49.966;7.106;2023-09-12T07:49:05;11.87;;;10.67;;
3767;SDS011;1899;49.966;7.106;2023-09-12T07:51:30;12.70;;;9.80;;
3767;SDS011;1899;49.966;7.106;2023-09-12T07:53:56;11.10;;;10.10;;
3767;SDS011;1899;49.966;7.106;2023-09-12T07:56:21;17.73;;;12.87;;
3767;SDS011;1899;49.966;7.106;2023-09-12T07:58:46;12.80;;;11.00;;
3767;SDS011;1899;49.966;7.106;2023-09-12T08:01:12;13.70;;;11.40;;
3767;SDS011;1899;49.966;7.106;2023-09-12T08:03:37;12.40;;;9.60;;
3767;SDS011;1899;49.966;7.106;2023-09-12T08:06:04;13.90;;;10.23;;
3767;SDS011;1899;49.966;7.106;2023-09-12T08:08:29;12.83;;;11.53;;
3767;SDS011;1899;49.966;7.106;2023-09-12T08:10:55;9.83;;;8.83;;
3767;SDS011;1899;49.966;7.106;2023-09-12T08:13:22;11.00;;;9.70;;
3767;SDS011;1899;49.966;7.106;2023-09-12T08:15:47;19.47;;;11.90;;
3767;SDS011;1899;49.966;7.106;2023-09-12T08:18:12;11.40;;;10.20;;
3767;SDS011;1899;49.966;7.106;2023-09-12T08:20:37;13.00;;;10.40;;
3767;SDS011;1899;49.966;7.106;2023-09-12T08:23:03;16.73;;;11.00;;
3767;SDS011;1899;49.966;7.106;2023-09-12T08:25:28;11.90;;;10.17;;
3767;SDS011;1899;49.966;7.106;2023-09-12T08:27:53;12.20;;;9.50;;
3767;SDS011;1899;49.966;7.106;2023-09-12T08:30:19;14.07;;;12.67;;
3767;SDS011;1899;49.966;7.106;2023-09-12T08:32:44;15.73;;;11.80;;
3767;SDS011;1899;49.966;7.106;2023-09-12T08:35:10;14.33;;;10.73;;
3767;SDS011;1899;49.966;7.106;2023-09-12T08:37:36;11.60;;;10.13;;
3767;SDS011;1899;49.966;7.106;2023-09-12T08:40:01;11.17;;;10.07;;
3767;SDS011;1899;49.966;7.106;2023-09-12T08:42:27;12.63;;;11.03;;
3767;SDS011;1899;49.966;7.106;2023-09-12T08:44:55;11.97;;;10.87;;
3767;SDS011;1899;49.966;7.106;2023-09-12T08:47:22;13.80;;;11.13;;
3767;SDS011;1899;49.966;7.106;2023-09-12T08:49:47;12.77;;;11.20;;
3767;SDS011;1899;49.966;7.106;2023-09-12T08:52:13;11.43;;;10.23;;
3767;SDS011;1899;49.966;7.106;2023-09-12T08:54:38;14.17;;;11.57;;
3767;SDS011;1899;49.966;7.106;2023-09-12T08:57:04;13.03;;;10.87;;
3767;SDS011;1899;49.966;7.106;2023-09-12T08:59:31;12.60;;;11.27;;
3767;SDS011;1899;49.966;7.106;2023-09-12T09:01:57;11.83;;;10.30;;
3767;SDS011;1899;49.966;7.106;2023-09-12T09:04:23;10.83;;;9.73;;
3767;SDS011;1899;49.966;7.106;2023-09-12T09:06:51;9.77;;;8.87;;
3767;SDS011;1899;49.966;7.106;2023-09-12T09:09:16;12.53;;;11.33;;
3767;SDS011;1899;49.966;7.106;2023-09-12T09:11:42;13.93;;;12.23;;
3767;SDS011;1899;49.966;7.106;2023-09-12T09:14:07;13.03;;;10.87;;
3767;SDS011;1899;49.966;7.106;2023-09-12T09:16:32;12.93;;;11.60;;
3767;SDS011;1899;49.966;7.106;2023-09-12T09:21:27;12.00;;;10.50;;
3767;SDS011;1899;49.966;7.106;2023-09-12T09:23:53;11.30;;;9.67;;
3767;SDS011;1899;49.966;7.106;2023-09-12T09:26:19;11.20;;;9.90;;
3767;SDS011;1899;49.966;7.106;2023-09-12T09:28:44;12.57;;;10.03;;
3767;SDS011;1899;49.966;7.106;2023-09-12T09:31:10;12.23;;;10.43;;
3767;SDS011;1899;49.966;7.106;2023-09-12T09:33:35;11.37;;;9.93;;
3767;SDS011;1899;49.966;7.106;2023-09-12T09:36:02;12.50;;;10.67;;
3767;SDS011;1899;49.966;7.106;2023-09-12T09:38:27;13.47;;;10.93;;
3767;SDS011;1899;49.966;7.106;2023-09-12T09:40:53;11.73;;;10.63;;
3767;SDS011;1899;49.966;7.106;2023-09-12T09:43:19;12.13;;;10.63;;
3767;SDS011;1899;49.966;7.106;2023-09-12T09:45:45;13.63;;;9.07;;
3767;SDS011;1899;49.966;7.106;2023-09-12T09:48:17;11.53;;;10.23;;
3767;SDS011;1899;49.966;7.106;2023-09-12T09:50:42;9.37;;;8.30;;
3767;SDS011;1899;49.966;7.106;2023-09-12T09:53:07;10.93;;;9.23;;
3767;SDS011;1899;49.966;7.106;2023-09-12T09:55:35;9.70;;;8.70;;
3767;SDS011;1899;49.966;7.106;2023-09-12T09:58:00;11.30;;;10.10;;
3767;SDS011;1899;49.966;7.106;2023-09-12T10:00:25;11.00;;;8.60;;
3767;SDS011;1899;49.966;7.106;2023-09-12T10:02:53;9.90;;;8.20;;
3767;SDS011;1899;49.966;7.106;2023-09-12T10:05:18;9.27;;;8.27;;
3767;SDS011;1899;49.966;7.106;2023-09-12T10:07:46;12.07;;;8.77;;
3767;SDS011;1899;49.966;7.106;2023-09-12T10:10:11;9.93;;;8.23;;
3767;SDS011;1899;49.966;7.106;2023-09-12T10:12:39;9.83;;;8.90;;
3767;SDS011;1899;49.966;7.106;2023-09-12T10:15:08;10.43;;;9.33;;
3767;SDS011;1899;49.966;7.106;2023-09-12T10:17:36;12.10;;;10.90;;
3767;SDS011;1899;49.966;7.106;2023-09-12T10:20:02;11.57;;;10.37;;
3767;SDS011;1899;49.966;7.106;2023-09-12T10:22:35;10.63;;;9.53;;
3767;SDS011;1899;49.966;7.106;2023-09-12T10:25:02;10.80;;;9.63;;
3767;SDS011;1899;49.966;7.106;2023-09-12T10:27:28;11.97;;;9.00;;
3767;SDS011;1899;49.966;7.106;2023-09-12T10:29:54;11.63;;;9.60;;
3767;SDS011;1899;49.966;7.106;2023-09-12T10:32:21;9.50;;;8.50;;
3767;SDS011;1899;49.966;7.106;2023-09-12T10:34:46;10.03;;;8.60;;
3767;SDS011;1899;49.966;7.106;2023-09-12T10:37:16;14.83;;;9.87;;
3767;SDS011;1899;49.966;7.106;2023-09-12T10:39:45;10.97;;;8.63;;
3767;SDS011;1899;49.966;7.106;2023-09-12T10:42:10;9.83;;;8.83;;
3767;SDS011;1899;49.966;7.106;2023-09-12T10:44:37;10.97;;;9.60;;
3767;SDS011;1899;49.966;7.106;2023-09-12T10:47:03;10.67;;;9.30;;
3767;SDS011;1899;49.966;7.106;2023-09-12T10:49:29;12.43;;;8.30;;
3767;SDS011;1899;49.966;7.106;2023-09-12T10:51:54;10.83;;;8.93;;
3767;SDS011;1899;49.966;7.106;2023-09-12T10:54:24;11.60;;;10.30;;
3767;SDS011;1899;49.966;7.106;2023-09-12T10:57:02;9.90;;;9.00;;
3767;SDS011;1899;49.966;7.106;2023-09-12T10:59:28;10.43;;;9.40;;
3767;SDS011;1899;49.966;7.106;2023-09-12T11:02:00;9.17;;;8.37;;
3767;SDS011;1899;49.966;7.106;2023-09-12T11:04:41;10.87;;;9.33;;
3767;SDS011;1899;49.966;7.106;2023-09-12T11:07:55;14.33;;;10.13;;
3767;SDS011;1899;49.966;7.106;2023-09-12T11:10:15;10.03;;;8.97;;
3767;SDS011;1899;49.966;7.106;2023-09-12T11:12:37;11.40;;;10.10;;
3767;SDS011;1899;49.966;7.106;2023-09-12T11:15:03;11.87;;;8.97;;
3767;SDS011;1899;49.966;7.106;2023-09-12T11:17:30;10.30;;;9.40;;
3767;SDS011;1899;49.966;7.106;2023-09-12T11:20:02;9.53;;;8.63;;
3767;SDS011;1899;49.966;7.106;2023-09-12T11:22:35;12.70;;;8.80;;
3767;SDS011;1899;49.966;7.106;2023-09-12T11:25:01;13.47;;;10.57;;
3767;SDS011;1899;49.966;7.106;2023-09-12T11:27:31;12.03;;;9.53;;
3767;SDS011;1899;49.966;7.106;2023-09-12T11:30:03;13.40;;;8.63;;
3767;SDS011;1899;49.966;7.106;2023-09-12T11:32:32;10.10;;;8.67;;
3767;SDS011;1899;49.966;7.106;2023-09-12T11:34:58;14.50;;;9.63;;
3767;SDS011;1899;49.966;7.106;2023-09-12T11:37:25;10.77;;;9.40;;
3767;SDS011;1899;49.966;7.106;2023-09-12T11:39:50;10.70;;;9.60;;
3767;SDS011;1899;49.966;7.106;2023-09-12T11:42:17;13.20;;;9.03;;
3767;SDS011;1899;49.966;7.106;2023-09-12T11:44:43;14.67;;;9.53;;
3767;SDS011;1899;49.966;7.106;2023-09-12T11:47:09;12.80;;;9.93;;
3767;SDS011;1899;49.966;7.106;2023-09-12T11:49:36;11.43;;;9.53;;
3767;SDS011;1899;49.966;7.106;2023-09-12T11:52:02;13.37;;;9.07;;
3767;SDS011;1899;49.966;7.106;2023-09-12T11:54:28;9.40;;;8.50;;
3767;SDS011;1899;49.966;7.106;2023-09-12T11:56:54;9.80;;;8.70;;
3767;SDS011;1899;49.966;7.106;2023-09-12T11:59:24;10.00;;;8.80;;
3767;SDS011;1899;49.966;7.106;2023-09-12T12:01:49;10.17;;;8.23;;
3767;SDS011;1899;49.966;7.106;2023-09-12T12:04:15;9.90;;;8.33;;
3767;SDS011;1899;49.966;7.106;2023-09-12T12:06:40;12.03;;;8.50;;
3767;SDS011;1899;49.966;7.106;2023-09-12T12:09:06;11.90;;;7.57;;
3767;SDS011;1899;49.966;7.106;2023-09-12T12:11:31;9.27;;;8.37;;
3767;SDS011;1899;49.966;7.106;2023-09-12T12:13:57;12.40;;;9.57;;
3767;SDS011;1899;49.966;7.106;2023-09-12T12:16:24;15.00;;;8.93;;
3767;SDS011;1899;49.966;7.106;2023-09-12T12:18:50;8.77;;;7.97;;
3767;SDS011;1899;49.966;7.106;2023-09-12T12:21:19;13.00;;;9.70;;
3767;SDS011;1899;49.966;7.106;2023-09-12T12:23:44;9.03;;;8.10;;
3767;SDS011;1899;49.966;7.106;2023-09-12T12:26:10;15.07;;;9.60;;
3767;SDS011;1899;49.966;7.106;2023-09-12T12:28:35;10.97;;;8.53;;
3767;SDS011;1899;49.966;7.106;2023-09-12T12:31:01;12.50;;;9.00;;
3767;SDS011;1899;49.966;7.106;2023-09-12T12:33:26;9.80;;;8.47;;
3767;SDS011;1899;49.966;7.106;2023-09-12T12:36:04;10.53;;;8.97;;
3767;SDS011;1899;49.966;7.106;2023-09-12T12:38:34;9.13;;;8.40;;
3767;SDS011;1899;49.966;7.106;2023-09-12T12:41:00;12.53;;;10.10;;
3767;SDS011;1899;49.966;7.106;2023-09-12T12:43:25;10.30;;;7.63;;
3767;SDS011;1899;49.966;7.106;2023-09-12T12:45:55;10.57;;;8.00;;
3767;SDS011;1899;49.966;7.106;2023-09-12T12:48:34;9.03;;;8.17;;
3767;SDS011;1899;49.966;7.106;2023-09-12T12:51:11;8.90;;;8.20;;
3767;SDS011;1899;49.966;7.106;2023-09-12T12:53:40;10.00;;;9.00;;
3767;SDS011;1899;49.966;7.106;2023-09-12T12:56:06;11.37;;;9.70;;
3767;SDS011;1899;49.966;7.106;2023-09-12T12:58:31;9.73;;;8.83;;
3767;SDS011;1899;49.966;7.106;2023-09-12T13:00:56;22.77;;;9.20;;
3767;SDS011;1899;49.966;7.106;2023-09-12T13:03:22;10.13;;;9.23;;
3767;SDS011;1899;49.966;7.106;2023-09-12T13:05:47;8.70;;;8.00;;
3767;SDS011;1899;49.966;7.106;2023-09-12T13:08:12;13.70;;;9.97;;
3767;SDS011;1899;49.966;7.106;2023-09-12T13:10:38;11.07;;;9.83;;
3767;SDS011;1899;49.966;7.106;2023-09-12T13:13:03;14.20;;;9.13;;
3767;SDS011;1899;49.966;7.106;2023-09-12T13:15:29;11.83;;;9.63;;
3767;SDS011;1899;49.966;7.106;2023-09-12T13:17:54;9.50;;;8.60;;
3767;SDS011;1899;49.966;7.106;2023-09-12T13:20:20;9.80;;;8.80;;
3767;SDS011;1899;49.966;7.106;2023-09-12T13:22:45;14.30;;;10.00;;
3767;SDS011;1899;49.966;7.106;2023-09-12T13:25:10;13.47;;;10.33;;
3767;SDS011;1899;49.966;7.106;2023-09-12T13:27:36;12.33;;;9.53;;
3767;SDS011;1899;49.966;7.106;2023-09-12T13:30:01;11.00;;;9.90;;
3767;SDS011;1899;49.966;7.106;2023-09-12T13:32:28;10.93;;;9.83;;
3767;SDS011;1899;49.966;7.106;2023-09-12T13:34:53;10.10;;;9.10;;
3767;SDS011;1899;49.966;7.106;2023-09-12T13:37:19;9.77;;;8.77;;
3767;SDS011;1899;49.966;7.106;2023-09-12T13:39:44;10.23;;;8.77;;
3767;SDS011;1899;49.966;7.106;2023-09-12T13:42:13;14.87;;;8.93;;
3767;SDS011;1899;49.966;7.106;2023-09-12T13:44:39;10.73;;;9.70;;
3767;SDS011;1899;49.966;7.106;2023-09-12T13:47:04;11.17;;;9.97;;
3767;SDS011;1899;49.966;7.106;2023-09-12T13:49:30;12.50;;;10.43;;
3767;SDS011;1899;49.966;7.106;2023-09-12T13:51:55;11.57;;;10.37;;
3767;SDS011;1899;49.966;7.106;2023-09-12T13:54:20;10.93;;;9.93;;
3767;SDS011;1899;49.966;7.106;2023-09-12T13:56:46;10.60;;;9.07;;
3767;SDS011;1899;49.966;7.106;2023-09-12T13:59:11;11.17;;;10.17;;
3767;SDS011;1899;49.966;7.106;2023-09-12T14:01:37;11.23;;;10.13;;
3767;SDS011;1899;49.966;7.106;2023-09-12T14:04:02;10.07;;;9.10;;
3767;SDS011;1899;49.966;7.106;2023-09-12T14:06:28;10.57;;;9.57;;
3767;SDS011;1899;49.966;7.106;2023-09-12T14:08:53;14.10;;;9.90;;
3767;SDS011;1899;49.966;7.106;2023-09-12T14:11:18;12.83;;;8.83;;
3767;SDS011;1899;49.966;7.106;2023-09-12T14:13:44;11.57;;;10.37;;
3767;SDS011;1899;49.966;7.106;2023-09-12T14:16:09;10.40;;;9.10;;
3767;SDS011;1899;49.966;7.106;2023-09-12T14:18:34;10.00;;;9.00;;
3767;SDS011;1899;49.966;7.106;2023-09-12T14:21:00;10.20;;;9.20;;
3767;SDS011;1899;49.966;7.106;2023-09-12T14:23:25;10.60;;;9.50;;
3767;SDS011;1899;49.966;7.106;2023-09-12T14:25:50;12.43;;;9.80;;
3767;SDS011;1899;49.966;7.106;2023-09-12T14:28:16;11.30;;;9.17;;
3767;SDS011;1899;49.966;7.106;2023-09-12T14:30:42;10.20;;;9.20;;
3767;SDS011;1899;49.966;7.106;2023-09-12T14:33:10;10.40;;;9.37;;
3767;SDS011;1899;49.966;7.106;2023-09-12T14:35:35;11.63;;;10.37;;
3767;SDS011;1899;49.966;7.106;2023-09-12T14:38:01;11.50;;;10.40;;
3767;SDS011;1899;49.966;7.106;2023-09-12T14:40:27;10.40;;;9.50;;
3767;SDS011;1899;49.966;7.106;2023-09-12T14:42:52;10.90;;;9.80;;
3767;SDS011;1899;49.966;7.106;2023-09-12T14:45:18;12.37;;;10.67;;
3767;SDS011;1899;49.966;7.106;2023-09-12T14:47:43;14.23;;;11.30;;
3767;SDS011;1899;49.966;7.106;2023-09-12T14:50:08;20.23;;;11.63;;
3767;SDS011;1899;49.966;7.106;2023-09-12T14:52:34;13.23;;;10.80;;
3767;SDS011;1899;49.966;7.106;2023-09-12T14:54:59;11.97;;;9.73;;
3767;SDS011;1899;49.966;7.106;2023-09-12T14:57:27;12.23;;;10.30;;